createdAt,value
2022-08-12T00:00:37.261Z,2.67
2022-08-12T00:03:23.962Z,2.55
2022-08-12T00:06:10.562Z,2.50
2022-08-12T00:08:58.008Z,2.50
2022-08-12T00:11:45.754Z,2.30
2022-08-12T00:14:32.483Z,2.10
2022-08-12T00:17:22.740Z,2.20
2022-08-12T00:20:10.261Z,2.30
2022-08-12T00:22:59.333Z,2.53
2022-08-12T00:26:21.875Z,2.10
2022-08-12T00:29:02.118Z,2.25
2022-08-12T00:31:48.402Z,2.30
2022-08-12T00:34:36.148Z,2.20
2022-08-12T00:37:23.295Z,2.08
2022-08-12T00:40:11.535Z,2.20
2022-08-12T00:42:41.998Z,2.30
2022-08-12T00:45:11.945Z,2.08
2022-08-12T00:47:41.895Z,2.30
2022-08-12T00:50:18.791Z,2.22
2022-08-12T00:52:48.463Z,2.17
2022-08-12T00:55:18.821Z,2.10
2022-08-12T00:57:49.833Z,2.80
2022-08-12T01:00:21.729Z,2.65
2022-08-12T01:02:53.095Z,2.70
2022-08-12T01:05:43.316Z,2.63
2022-08-12T01:08:44.835Z,2.60
2022-08-12T01:11:33.241Z,2.33
2022-08-12T01:14:03.433Z,2.85
2022-08-12T01:16:32.697Z,2.25
2022-08-12T01:19:03.807Z,2.65
2022-08-12T01:22:11.046Z,2.40
2022-08-12T01:24:55.036Z,2.70
2022-08-12T01:27:25.877Z,2.28
2022-08-12T01:29:56.000Z,2.42
2022-08-12T01:32:28.204Z,2.60
2022-08-12T01:35:08.586Z,2.50
2022-08-12T01:37:56.094Z,2.60
2022-08-12T01:40:35.755Z,2.47
2022-08-12T01:43:09.888Z,2.50
2022-08-12T01:45:47.933Z,2.83
2022-08-12T01:48:26.424Z,2.28
2022-08-12T01:51:06.428Z,2.50
2022-08-12T01:53:48.649Z,2.20
2022-08-12T01:56:26.095Z,2.58
2022-08-12T01:59:16.319Z,2.28
2022-08-12T02:01:47.973Z,2.30
2022-08-12T02:04:43.415Z,2.42
2022-08-12T02:07:48.923Z,2.63
2022-08-12T02:10:50.004Z,3.70
2022-08-12T02:13:49.452Z,3.60
2022-08-12T02:16:33.516Z,3.20
2022-08-12T02:19:22.267Z,3.00
2022-08-12T02:22:06.501Z,3.08
2022-08-12T02:24:38.760Z,2.58
2022-08-12T02:27:09.070Z,3.40
2022-08-12T02:29:42.040Z,3.13
2022-08-12T02:32:11.425Z,3.25
2022-08-12T02:34:40.872Z,3.20
2022-08-12T02:37:10.800Z,3.30
2022-08-12T02:39:46.023Z,2.67
2022-08-12T02:42:17.592Z,3.10
2022-08-12T02:44:52.473Z,3.10
2022-08-12T02:48:00.077Z,2.72
2022-08-12T02:50:16.055Z,3.10
2022-08-12T02:52:46.334Z,3.03
2022-08-12T02:55:28.806Z,2.60
2022-08-12T02:58:12.081Z,2.72
2022-08-12T03:00:44.804Z,2.75
2022-08-12T03:03:15.184Z,2.70
2022-08-12T03:05:52.603Z,2.75
2022-08-12T03:08:32.423Z,3.15
2022-08-12T03:11:14.282Z,3.35
2022-08-12T03:13:47.762Z,3.22
2022-08-12T03:16:18.843Z,2.97
2022-08-12T03:18:48.082Z,2.90
2022-08-12T03:21:55.368Z,2.88
2022-08-12T03:24:09.863Z,2.92
2022-08-12T03:26:39.261Z,2.90
2022-08-12T03:29:08.902Z,2.88
2022-08-12T03:31:39.411Z,2.70
2022-08-12T03:34:10.312Z,3.05
2022-08-12T03:36:42.114Z,2.63
2022-08-12T03:39:35.841Z,2.80
2022-08-12T03:42:22.059Z,2.80
2022-08-12T03:45:16.837Z,2.83
2022-08-12T03:48:13.364Z,3.13
2022-08-12T03:51:06.503Z,2.67
2022-08-12T03:53:53.639Z,2.55
2022-08-12T03:56:39.742Z,2.75
2022-08-12T03:59:27.691Z,2.65
2022-08-12T04:01:58.677Z,2.95
2022-08-12T04:04:34.889Z,2.95
2022-08-12T04:07:06.786Z,3.88
2022-08-12T04:09:37.077Z,3.58
2022-08-12T04:12:26.057Z,3.60
2022-08-12T04:14:57.204Z,3.10
2022-08-12T04:17:28.447Z,2.72
2022-08-12T04:20:00.436Z,3.08
2022-08-12T04:22:31.120Z,2.65
2022-08-12T04:25:02.145Z,2.63
2022-08-12T04:27:32.887Z,2.90
2022-08-12T04:30:21.225Z,2.80
2022-08-12T04:32:53.836Z,2.85
2022-08-12T04:35:24.542Z,3.13
2022-08-12T04:37:59.314Z,2.75
2022-08-12T04:40:32.768Z,2.80
2022-08-12T04:43:02.427Z,2.30
2022-08-12T04:45:33.184Z,2.72
2022-08-12T04:48:02.907Z,2.80
2022-08-12T04:50:36.950Z,2.45
2022-08-12T04:53:08.959Z,2.72
2022-08-12T04:55:39.863Z,2.80
2022-08-12T04:58:09.008Z,2.90
2022-08-12T05:00:39.295Z,2.95
2022-08-12T05:03:09.247Z,2.90
2022-08-12T05:05:40.899Z,2.70
2022-08-12T05:08:13.554Z,3.00
2022-08-12T05:10:42.797Z,2.90
2022-08-12T05:13:15.519Z,2.50
2022-08-12T05:16:04.026Z,2.50
2022-08-12T05:18:35.079Z,2.75
2022-08-12T05:21:10.632Z,2.58
2022-08-12T05:23:40.757Z,2.50
2022-08-12T05:26:10.194Z,2.58
2022-08-12T05:28:39.287Z,3.00
2022-08-12T05:31:08.344Z,2.80
2022-08-12T05:33:40.483Z,2.65
2022-08-12T05:36:14.175Z,2.65
2022-08-12T05:38:59.589Z,3.17
2022-08-12T05:41:30.714Z,3.17
2022-08-12T05:44:01.453Z,3.22
2022-08-12T05:46:32.731Z,2.78
2022-08-12T05:49:02.397Z,2.80
2022-08-12T05:51:40.303Z,3.10
2022-08-12T05:54:12.374Z,2.80
2022-08-12T05:56:42.159Z,3.00
2022-08-12T05:59:12.778Z,3.00
2022-08-12T06:02:12.057Z,3.15
2022-08-12T06:04:33.642Z,3.13
2022-08-12T06:08:00.331Z,3.55
2022-08-12T06:09:58.360Z,3.20
2022-08-12T06:12:27.759Z,3.40
2022-08-12T06:14:56.721Z,3.30
2022-08-12T06:17:25.707Z,3.50
2022-08-12T06:20:27.306Z,2.92
2022-08-12T06:22:46.595Z,3.30
2022-08-12T06:25:21.871Z,2.92
2022-08-12T06:28:07.669Z,2.97
2022-08-12T06:30:39.439Z,3.05
2022-08-12T06:33:55.028Z,3.65
2022-08-12T06:35:59.074Z,7.90
2022-08-12T06:38:30.832Z,9.13
2022-08-12T06:41:19.228Z,7.07
2022-08-12T06:44:06.722Z,4.95
2022-08-12T06:46:39.060Z,3.10
2022-08-12T06:49:12.552Z,3.60
2022-08-12T06:51:42.133Z,3.40
2022-08-12T06:54:31.215Z,3.08
2022-08-12T06:57:04.903Z,3.38
2022-08-12T06:59:51.261Z,3.33
2022-08-12T07:02:20.805Z,3.10
2022-08-12T07:04:49.966Z,3.00
2022-08-12T07:07:18.823Z,3.47
2022-08-12T07:10:04.540Z,3.53
2022-08-12T07:12:37.061Z,3.47
2022-08-12T07:15:06.924Z,3.75
2022-08-12T07:17:37.966Z,2.80
2022-08-12T07:20:29.898Z,3.10
2022-08-12T07:22:59.054Z,2.92
2022-08-12T07:25:40.453Z,2.83
2022-08-12T07:28:14.121Z,3.30
2022-08-12T07:30:49.416Z,2.88
2022-08-12T07:33:22.499Z,3.20
2022-08-12T07:35:54.663Z,3.17
2022-08-12T07:38:29.223Z,2.83
2022-08-12T07:41:04.151Z,2.70
2022-08-12T07:43:33.889Z,2.70
2022-08-12T07:46:05.272Z,2.70
2022-08-12T07:48:39.165Z,2.60
2022-08-12T07:51:08.876Z,2.83
2022-08-12T07:53:50.190Z,2.55
2022-08-12T07:56:31.468Z,2.67
2022-08-12T07:59:01.328Z,2.60
2022-08-12T08:01:30.821Z,2.67
2022-08-12T08:04:19.359Z,2.60
2022-08-12T08:06:50.009Z,2.60
2022-08-12T08:09:22.606Z,2.45
2022-08-12T08:12:18.656Z,2.60
2022-08-12T08:14:50.161Z,2.67
2022-08-12T08:17:19.377Z,2.35
2022-08-12T08:20:01.979Z,2.28
2022-08-12T08:22:41.635Z,2.30
2022-08-12T08:25:34.880Z,2.80
2022-08-12T08:28:06.029Z,2.45
2022-08-12T08:30:36.327Z,2.35
2022-08-12T08:33:23.081Z,2.40
2022-08-12T08:35:54.930Z,2.40
2022-08-12T08:38:32.011Z,2.47
2022-08-12T08:42:19.266Z,2.40
2022-08-12T08:44:23.571Z,2.85
2022-08-12T08:46:55.817Z,2.83
2022-08-12T08:49:25.288Z,2.60
2022-08-12T08:51:54.110Z,2.55
2022-08-12T08:54:24.887Z,2.40
2022-08-12T08:56:53.956Z,2.50
2022-08-12T08:59:24.317Z,2.10
2022-08-12T09:01:53.258Z,2.30
2022-08-12T09:05:12.130Z,2.38
2022-08-12T09:10:04.238Z,2.50
2022-08-12T09:12:54.328Z,2.70
2022-08-12T09:15:35.743Z,2.30
2022-08-12T09:20:55.906Z,2.25
2022-08-12T09:23:58.523Z,2.30
2022-08-12T09:26:19.165Z,2.28
2022-08-12T09:28:53.076Z,2.17
2022-08-12T09:32:03.614Z,2.35
2022-08-12T09:34:26.143Z,2.13
2022-08-12T09:37:02.786Z,2.28
2022-08-12T09:40:06.163Z,2.10
2022-08-12T09:46:06.582Z,2.30
2022-08-12T09:48:44.468Z,2.20
2022-08-12T09:51:21.670Z,2.33
2022-08-12T09:54:33.715Z,2.22
2022-08-12T09:57:01.130Z,2.00
2022-08-12T10:00:16.633Z,2.17
2022-08-12T10:02:44.470Z,2.00
2022-08-12T10:05:13.920Z,1.95
2022-08-12T10:07:49.385Z,2.15
2022-08-12T10:10:24.449Z,2.03
2022-08-12T10:13:14.333Z,2.25
2022-08-12T10:16:02.504Z,2.00
2022-08-12T10:18:35.291Z,2.20
2022-08-12T10:21:10.690Z,1.95
2022-08-12T10:23:45.855Z,2.03
2022-08-12T10:26:38.995Z,2.20
2022-08-12T10:30:01.898Z,2.38
2022-08-12T10:32:45.020Z,2.35
2022-08-12T10:35:10.263Z,2.10
2022-08-12T10:38:38.615Z,2.17
2022-08-12T10:40:33.465Z,2.17
2022-08-12T10:43:20.458Z,2.20
2022-08-12T10:45:53.492Z,2.08
2022-08-12T10:48:34.257Z,2.50
2022-08-12T10:52:04.027Z,2.03
2022-08-12T10:54:00.983Z,1.88
2022-08-12T10:56:34.698Z,2.15
2022-08-12T10:59:05.601Z,2.28
2022-08-12T11:04:17.794Z,2.10
2022-08-12T11:04:45.122Z,2.13
2022-08-12T11:08:35.017Z,2.10
2022-08-12T11:10:10.389Z,2.03
2022-08-12T11:12:57.778Z,1.90
2022-08-12T11:16:04.117Z,2.17
2022-08-12T11:18:19.062Z,2.17
2022-08-12T11:20:50.610Z,1.90
2022-08-12T11:23:24.602Z,2.20
2022-08-12T11:26:07.570Z,2.10
2022-08-12T11:28:38.878Z,2.10
2022-08-12T11:31:14.094Z,2.22
2022-08-12T11:34:04.320Z,2.30
2022-08-12T11:36:33.323Z,2.08
2022-08-12T11:39:12.404Z,2.13
2022-08-12T11:41:43.219Z,2.20
2022-08-12T11:44:36.734Z,2.20
2022-08-12T11:47:09.676Z,2.15
2022-08-12T11:49:38.759Z,2.05
2022-08-12T11:52:27.928Z,1.92
2022-08-12T11:54:56.966Z,2.28
2022-08-12T11:58:40.593Z,2.05
2022-08-12T12:02:02.774Z,2.20
2022-08-12T12:03:06.317Z,2.25
2022-08-12T12:05:41.675Z,2.10
2022-08-12T12:08:38.612Z,2.40
2022-08-12T12:11:10.958Z,2.30
2022-08-12T12:14:08.298Z,2.25
2022-08-12T12:16:30.785Z,1.90
2022-08-12T12:19:02.192Z,2.45
2022-08-12T12:21:48.482Z,2.10
2022-08-12T12:24:21.246Z,1.85
2022-08-12T12:27:00.101Z,2.22
2022-08-12T12:30:18.216Z,2.20
2022-08-12T12:32:29.373Z,2.17
2022-08-12T12:35:14.003Z,1.92
2022-08-12T12:38:05.013Z,2.10
2022-08-12T12:40:45.400Z,1.92
2022-08-12T12:43:15.089Z,2.40
2022-08-12T12:45:47.339Z,2.20
2022-08-12T12:48:18.205Z,2.25
2022-08-12T12:51:09.572Z,2.20
2022-08-12T12:54:06.335Z,2.50
2022-08-12T12:56:33.883Z,2.20
2022-08-12T12:59:06.243Z,2.30
2022-08-12T13:01:41.751Z,2.40
2022-08-12T13:04:14.460Z,2.92
2022-08-12T13:06:43.564Z,2.15
2022-08-12T13:09:13.567Z,2.30
2022-08-12T13:11:44.503Z,2.40
2022-08-12T13:14:28.764Z,2.40
2022-08-12T13:17:02.580Z,2.20
2022-08-12T13:19:45.131Z,2.20
2022-08-12T13:22:23.768Z,2.50
2022-08-12T13:24:56.181Z,2.05
2022-08-12T13:27:35.136Z,2.55
2022-08-12T13:30:10.977Z,2.33
2022-08-12T13:32:56.524Z,2.40
2022-08-12T13:35:33.520Z,2.40
2022-08-12T13:38:26.600Z,2.70
2022-08-12T13:40:58.688Z,2.50
2022-08-12T13:43:41.127Z,2.40
2022-08-12T13:46:11.953Z,2.28
2022-08-12T13:48:44.710Z,2.30
2022-08-12T13:51:14.546Z,2.17
2022-08-12T13:53:57.801Z,2.67
2022-08-12T13:56:34.733Z,2.33
2022-08-12T13:59:08.499Z,2.22
2022-08-12T14:01:40.355Z,2.40
2022-08-12T14:04:12.388Z,2.40
2022-08-12T14:06:41.863Z,2.35
2022-08-12T14:09:17.483Z,2.17
2022-08-12T14:11:58.364Z,2.53
2022-08-12T14:14:31.652Z,2.50
2022-08-12T14:17:10.338Z,2.38
2022-08-12T14:20:02.214Z,2.47
2022-08-12T14:22:32.222Z,2.90
2022-08-12T14:25:02.716Z,2.40
2022-08-12T14:28:03.978Z,2.80
2022-08-12T14:30:28.879Z,2.53
2022-08-12T14:33:03.043Z,2.47
2022-08-12T14:35:41.000Z,2.83
2022-08-12T14:38:16.433Z,2.60
2022-08-12T14:40:45.946Z,2.78
2022-08-12T14:43:15.540Z,2.70
2022-08-12T14:45:49.207Z,2.83
2022-08-12T14:48:24.507Z,2.90
2022-08-12T14:52:10.295Z,2.47
2022-08-12T14:57:06.020Z,2.10
2022-08-12T14:59:56.310Z,2.53
2022-08-12T15:02:29.794Z,1.92
2022-08-12T15:05:00.908Z,2.40
2022-08-12T15:07:49.493Z,1.85
2022-08-12T15:10:31.993Z,2.00
2022-08-12T15:13:07.303Z,1.90
2022-08-12T15:15:43.709Z,1.80
2022-08-12T15:18:21.630Z,1.77
2022-08-12T15:20:52.172Z,1.70
2022-08-12T15:23:23.560Z,1.83
2022-08-12T15:26:02.963Z,1.92
2022-08-12T15:28:34.433Z,1.85
2022-08-12T15:31:09.428Z,1.63
2022-08-12T15:33:51.156Z,1.70
2022-08-12T15:36:53.599Z,1.52
2022-08-12T15:39:16.688Z,1.90
2022-08-12T15:41:49.613Z,1.60
2022-08-12T15:44:38.489Z,1.63
2022-08-12T15:47:10.153Z,1.60
2022-08-12T15:49:54.963Z,1.40
2022-08-12T15:52:29.252Z,1.60
2022-08-12T15:55:05.030Z,1.55
2022-08-12T15:57:35.654Z,1.80
2022-08-12T16:00:09.317Z,1.65
2022-08-12T16:02:57.970Z,1.85
2022-08-12T16:06:12.798Z,1.90
2022-08-12T16:08:27.410Z,2.55
2022-08-12T16:10:58.833Z,2.17
2022-08-12T16:13:34.751Z,1.70
2022-08-12T16:16:23.171Z,1.70
2022-08-12T16:18:59.616Z,1.60
2022-08-12T16:21:51.882Z,1.50
2022-08-12T16:24:21.829Z,1.40
2022-08-12T16:26:54.462Z,1.30
2022-08-12T16:29:38.523Z,1.52
2022-08-12T16:32:24.215Z,1.65
2022-08-12T16:34:55.801Z,1.30
2022-08-12T16:38:04.721Z,1.33
2022-08-12T16:40:15.242Z,1.40
2022-08-12T16:43:01.523Z,1.35
2022-08-12T16:46:05.661Z,1.38
2022-08-12T16:48:35.042Z,1.63
2022-08-12T16:51:09.251Z,1.60
2022-08-12T16:53:44.396Z,1.42
2022-08-12T16:56:16.878Z,1.40
2022-08-12T16:58:48.510Z,1.45
2022-08-12T17:01:21.305Z,1.40
2022-08-12T17:04:09.122Z,1.73
2022-08-12T17:06:41.737Z,1.40
2022-08-12T17:09:17.225Z,1.42
2022-08-12T17:11:49.080Z,1.30
2022-08-12T17:14:23.704Z,1.38
2022-08-12T17:16:55.247Z,1.50
2022-08-12T17:20:12.140Z,1.52
2022-08-12T17:22:21.468Z,2.30
2022-08-12T17:24:55.508Z,2.10
2022-08-12T17:27:26.216Z,1.80
2022-08-12T17:30:02.630Z,1.80
2022-08-12T17:32:33.794Z,1.60
2022-08-12T17:35:21.066Z,1.70
2022-08-12T17:37:50.959Z,1.70
2022-08-12T17:40:36.212Z,1.48
2022-08-12T17:43:52.220Z,1.50
2022-08-12T17:46:03.066Z,1.67
2022-08-12T17:48:38.675Z,1.50
2022-08-12T17:51:15.442Z,1.70
2022-08-12T17:54:06.358Z,1.63
2022-08-12T17:56:37.557Z,2.28
2022-08-12T17:59:09.791Z,1.80
2022-08-12T18:01:46.106Z,1.80
2022-08-12T18:04:23.240Z,2.00
2022-08-12T18:07:06.310Z,1.52
2022-08-12T18:09:38.272Z,1.83
2022-08-12T18:12:26.648Z,2.10
2022-08-12T18:14:58.377Z,1.70
2022-08-12T18:17:29.879Z,1.50
2022-08-12T18:20:07.122Z,1.60
2022-08-12T18:22:36.554Z,1.70
2022-08-12T18:26:16.131Z,1.77
2022-08-12T18:28:16.866Z,1.70
2022-08-12T18:30:53.442Z,1.60
2022-08-12T18:33:26.760Z,1.40
2022-08-12T18:35:58.250Z,1.55
2022-08-12T18:38:28.376Z,1.27
2022-08-12T18:41:22.550Z,1.45
2022-08-12T18:43:59.893Z,1.63
2022-08-12T18:46:55.277Z,1.48
2022-08-12T18:49:33.402Z,1.60
2022-08-12T18:52:07.695Z,1.40
2022-08-12T18:54:49.214Z,1.65
2022-08-12T18:58:06.067Z,1.50
2022-08-12T19:00:20.867Z,1.50
2022-08-12T19:02:53.891Z,1.40
2022-08-12T19:05:54.084Z,1.73
2022-08-12T19:08:14.560Z,1.40
2022-08-12T19:10:50.562Z,1.17
2022-08-12T19:13:39.499Z,1.27
2022-08-12T19:16:12.785Z,1.13
2022-08-12T19:18:44.529Z,1.30
2022-08-12T19:21:20.268Z,1.08
2022-08-12T19:24:11.835Z,1.10
2022-08-12T19:26:42.665Z,1.20
2022-08-12T19:29:12.599Z,1.08
2022-08-12T19:31:58.266Z,1.20
2022-08-12T19:37:27.104Z,1.08
2022-08-12T19:40:09.228Z,1.23
2022-08-12T19:43:00.771Z,1.00
2022-08-12T19:45:43.352Z,1.20
2022-08-12T19:48:21.219Z,1.10
2022-08-12T19:50:52.351Z,1.30
2022-08-12T19:53:24.276Z,1.17
2022-08-12T19:55:55.249Z,1.10
2022-08-12T19:58:25.265Z,1.15
2022-08-12T20:00:55.579Z,1.17
2022-08-12T20:03:39.415Z,1.35
2022-08-12T20:06:13.981Z,1.25
2022-08-12T20:08:56.000Z,1.23
2022-08-12T20:12:13.643Z,1.20
2022-08-12T20:14:19.532Z,1.20
2022-08-12T20:16:57.294Z,1.05
2022-08-12T20:20:01.175Z,1.20
2022-08-12T20:22:31.378Z,1.40
2022-08-12T20:25:10.681Z,1.33
2022-08-12T20:28:05.551Z,1.70
2022-08-12T20:30:52.693Z,1.52
2022-08-12T20:33:50.135Z,1.90
2022-08-12T20:36:41.189Z,1.60
2022-08-12T20:39:17.507Z,1.80
2022-08-12T20:42:07.170Z,1.70
2022-08-12T20:44:39.800Z,1.80
2022-08-12T20:47:16.664Z,1.60
2022-08-12T20:49:55.578Z,1.50
2022-08-12T20:52:30.498Z,1.83
2022-08-12T20:55:03.723Z,1.60
2022-08-12T20:57:37.474Z,1.70
2022-08-12T21:00:14.444Z,1.60
2022-08-12T21:02:50.166Z,1.77
2022-08-12T21:06:09.645Z,1.80
2022-08-12T21:08:26.797Z,1.50
2022-08-12T21:10:58.873Z,1.55
2022-08-12T21:13:39.257Z,1.58
2022-08-12T21:16:11.639Z,1.65
2022-08-12T21:18:41.050Z,1.70
2022-08-12T21:21:23.768Z,1.45
2022-08-12T21:23:56.518Z,1.60
2022-08-12T21:26:28.507Z,1.42
2022-08-12T21:29:01.634Z,1.50
2022-08-12T21:32:37.362Z,1.80
2022-08-12T21:34:29.265Z,1.58
2022-08-12T21:37:12.967Z,1.50
2022-08-12T21:39:46.316Z,1.40
2022-08-12T21:42:27.899Z,1.50
2022-08-12T21:45:47.004Z,1.60
2022-08-12T21:47:53.295Z,1.70
2022-08-12T21:50:22.462Z,1.52
2022-08-12T21:52:58.243Z,1.65
2022-08-12T21:55:27.498Z,1.60
2022-08-12T21:58:02.882Z,1.48
2022-08-12T22:00:35.089Z,1.65
2022-08-12T22:04:02.043Z,1.60
2022-08-12T22:06:19.983Z,1.95
2022-08-12T22:08:57.971Z,1.75
2022-08-12T22:11:42.281Z,1.38
2022-08-12T22:14:21.869Z,1.60
2022-08-12T22:16:56.728Z,1.33
2022-08-12T22:19:26.700Z,1.45
2022-08-12T22:21:58.827Z,1.80
2022-08-12T22:24:33.330Z,1.52
2022-08-12T22:27:18.167Z,1.30
2022-08-12T22:30:16.118Z,1.30
2022-08-12T22:32:50.192Z,1.20
2022-08-12T22:35:56.752Z,1.20
2022-08-12T22:38:26.766Z,1.15
2022-08-12T22:41:00.841Z,1.30
2022-08-12T22:44:01.076Z,1.30
2022-08-12T22:46:53.138Z,1.08
2022-08-12T22:49:26.149Z,1.35
2022-08-12T22:52:18.267Z,1.05
2022-08-12T22:55:02.770Z,1.30
2022-08-12T22:57:53.657Z,1.60
2022-08-12T23:00:27.862Z,1.35
2022-08-12T23:03:02.761Z,1.30
2022-08-12T23:05:36.758Z,1.40
2022-08-12T23:08:29.626Z,1.38
2022-08-12T23:10:59.604Z,1.30
2022-08-12T23:13:45.990Z,1.23
2022-08-12T23:16:28.465Z,1.33
2022-08-12T23:19:01.725Z,1.23
2022-08-12T23:22:05.793Z,1.38
2022-08-12T23:24:38.820Z,1.60
2022-08-12T23:27:44.362Z,1.40
2022-08-12T23:30:18.818Z,1.30
2022-08-12T23:32:50.887Z,1.80
2022-08-12T23:35:23.996Z,1.50
2022-08-12T23:38:30.170Z,1.75
2022-08-12T23:41:02.120Z,1.70
2022-08-12T23:43:39.679Z,1.50
2022-08-12T23:46:11.660Z,1.60
2022-08-12T23:48:41.141Z,1.50
2022-08-12T23:51:22.549Z,1.70
2022-08-12T23:53:56.502Z,1.88
2022-08-12T23:56:34.042Z,1.60
2022-08-12T23:59:04.459Z,1.98
